createdAt,value
2022-10-23T00:00:12.020Z,990.56
2022-10-23T00:01:11.956Z,990.64
2022-10-23T00:02:11.998Z,990.55
2022-10-23T00:03:11.937Z,990.54
2022-10-23T00:04:11.926Z,990.53
2022-10-23T00:05:11.921Z,990.54
2022-10-23T00:06:11.921Z,990.59
2022-10-23T00:07:11.918Z,990.61
2022-10-23T00:08:11.918Z,990.51
2022-10-23T00:09:11.878Z,990.56
2022-10-23T00:10:11.869Z,990.50
2022-10-23T00:11:11.866Z,990.49
2022-10-23T00:12:11.859Z,990.54
2022-10-23T00:13:11.841Z,990.56
2022-10-23T00:14:11.841Z,990.54
2022-10-23T00:15:11.835Z,990.50
2022-10-23T00:16:11.819Z,990.54
2022-10-23T00:17:11.824Z,990.58
2022-10-23T00:18:11.792Z,990.51
2022-10-23T00:19:11.810Z,990.51
2022-10-23T00:20:11.778Z,990.47
2022-10-23T00:21:11.769Z,990.56
2022-10-23T00:22:11.778Z,990.54
2022-10-23T00:23:11.743Z,990.55
2022-10-23T00:24:11.743Z,990.56
2022-10-23T00:25:11.723Z,990.55
2022-10-23T00:26:11.719Z,990.52
2022-10-23T00:27:11.706Z,990.52
2022-10-23T00:28:11.712Z,990.57
2022-10-23T00:29:11.719Z,990.48
2022-10-23T00:30:11.669Z,990.52
2022-10-23T00:31:11.669Z,990.52
2022-10-23T00:32:11.649Z,990.53
2022-10-23T00:33:11.646Z,990.50
2022-10-23T00:34:11.647Z,990.47
2022-10-23T00:35:11.628Z,990.46
2022-10-23T00:36:11.627Z,990.50
2022-10-23T00:37:11.599Z,990.44
2022-10-23T00:38:11.594Z,990.42
2022-10-23T00:39:11.604Z,990.41
2022-10-23T00:40:11.576Z,990.43
2022-10-23T00:41:11.577Z,990.45
2022-10-23T00:42:11.616Z,990.39
2022-10-23T00:43:11.548Z,990.42
2022-10-23T00:44:11.543Z,990.49
2022-10-23T00:45:11.527Z,990.49
2022-10-23T00:46:11.514Z,990.49
2022-10-23T00:47:11.512Z,990.51
2022-10-23T00:48:11.485Z,990.44
2022-10-23T00:50:11.473Z,990.46
2022-10-23T00:51:11.463Z,990.46
2022-10-23T00:52:11.473Z,990.46
2022-10-23T00:53:11.439Z,990.44
2022-10-23T00:54:26.845Z,990.44
2022-10-23T00:55:13.427Z,990.48
2022-10-23T00:56:11.418Z,990.45
2022-10-23T00:57:11.425Z,990.46
2022-10-23T00:58:11.404Z,990.39
2022-10-23T00:59:11.407Z,990.46
2022-10-23T01:00:11.373Z,990.48
2022-10-23T01:01:11.402Z,990.46
2022-10-23T01:02:11.542Z,990.48
2022-10-23T01:03:11.358Z,990.48
2022-10-23T01:04:11.352Z,990.47
2022-10-23T01:05:11.323Z,990.40
2022-10-23T01:06:11.313Z,990.39
2022-10-23T01:07:11.315Z,990.43
2022-10-23T01:08:11.317Z,990.40
2022-10-23T01:09:11.292Z,990.40
2022-10-23T01:10:11.292Z,990.34
2022-10-23T01:11:12.271Z,990.41
2022-10-23T01:12:11.269Z,990.40
2022-10-23T01:13:11.247Z,990.38
2022-10-23T01:14:11.273Z,990.31
2022-10-23T01:15:11.223Z,990.33
2022-10-23T01:16:11.216Z,990.32
2022-10-23T01:17:11.206Z,990.32
2022-10-23T01:18:11.204Z,990.31
2022-10-23T01:19:11.213Z,990.31
2022-10-23T01:20:11.183Z,990.32
2022-10-23T01:21:11.174Z,990.28
2022-10-23T01:22:11.273Z,990.28
2022-10-23T01:23:11.163Z,990.32
2022-10-23T01:24:11.167Z,990.25
2022-10-23T01:25:11.155Z,990.28
2022-10-23T01:26:11.133Z,990.21
2022-10-23T01:27:11.114Z,990.22
2022-10-23T01:28:11.098Z,990.20
2022-10-23T01:29:11.086Z,990.15
2022-10-23T01:30:11.102Z,990.20
2022-10-23T01:31:11.064Z,990.18
2022-10-23T01:32:11.060Z,990.17
2022-10-23T01:33:11.047Z,990.19
2022-10-23T01:34:11.030Z,990.23
2022-10-23T01:35:11.021Z,990.22
2022-10-23T01:36:11.035Z,990.21
2022-10-23T01:37:11.005Z,990.14
2022-10-23T01:38:11.000Z,990.11
2022-10-23T01:39:11.021Z,990.11
2022-10-23T01:40:10.984Z,990.02
2022-10-23T01:41:10.967Z,990.00
2022-10-23T01:42:10.957Z,990.01
2022-10-23T01:43:10.956Z,990.00
2022-10-23T01:44:10.974Z,990.01
2022-10-23T01:45:10.927Z,990.01
2022-10-23T01:46:10.924Z,989.98
2022-10-23T01:47:11.003Z,989.98
2022-10-23T01:48:10.903Z,989.97
2022-10-23T01:49:11.924Z,989.95
2022-10-23T01:50:10.882Z,989.94
2022-10-23T01:51:10.872Z,989.92
2022-10-23T01:52:10.860Z,989.92
2022-10-23T01:53:10.864Z,989.94
2022-10-23T01:54:10.841Z,989.89
2022-10-23T01:55:10.823Z,989.85
2022-10-23T01:56:10.816Z,989.81
2022-10-23T01:57:10.809Z,989.91
2022-10-23T01:58:10.813Z,989.93
2022-10-23T01:59:10.802Z,989.92
2022-10-23T02:00:10.783Z,989.95
2022-10-23T02:01:10.878Z,989.91
2022-10-23T02:02:10.941Z,989.96
2022-10-23T02:03:10.777Z,989.98
2022-10-23T02:04:10.762Z,989.94
2022-10-23T02:05:10.729Z,990.05
2022-10-23T02:06:10.717Z,990.02
2022-10-23T02:07:10.714Z,990.03
2022-10-23T02:08:10.693Z,990.06
2022-10-23T02:09:10.701Z,990.04
2022-10-23T02:10:10.684Z,990.03
2022-10-23T02:11:10.691Z,990.08
2022-10-23T02:12:10.658Z,990.11
2022-10-23T02:13:10.663Z,990.09
2022-10-23T02:14:10.637Z,990.06
2022-10-23T02:15:10.647Z,990.08
2022-10-23T02:16:10.629Z,990.09
2022-10-23T02:17:10.623Z,990.07
2022-10-23T02:18:10.598Z,990.07
2022-10-23T02:19:10.591Z,990.05
2022-10-23T02:20:10.589Z,990.12
2022-10-23T02:21:10.592Z,990.16
2022-10-23T02:22:10.559Z,990.12
2022-10-23T02:23:10.557Z,990.12
2022-10-23T02:24:10.535Z,990.12
2022-10-23T02:25:11.537Z,990.07
2022-10-23T02:26:10.538Z,990.03
2022-10-23T02:27:10.509Z,990.00
2022-10-23T02:28:10.528Z,990.02
2022-10-23T02:29:10.487Z,989.95
2022-10-23T02:30:10.489Z,989.90
2022-10-23T02:31:10.471Z,989.91
2022-10-23T02:32:10.462Z,989.88
2022-10-23T02:33:10.472Z,989.86
2022-10-23T02:34:10.441Z,989.87
2022-10-23T02:35:10.423Z,989.90
2022-10-23T02:36:10.415Z,989.94
2022-10-23T02:37:10.471Z,989.88
2022-10-23T02:38:10.395Z,989.91
2022-10-23T02:39:10.405Z,989.90
2022-10-23T02:40:10.381Z,989.92
2022-10-23T02:41:10.373Z,989.86
2022-10-23T02:42:10.361Z,989.81
2022-10-23T02:43:10.344Z,989.80
2022-10-23T02:44:10.352Z,989.82
2022-10-23T02:45:10.334Z,989.85
2022-10-23T02:46:10.319Z,989.91
2022-10-23T02:47:10.318Z,989.94
2022-10-23T02:48:10.301Z,989.94
2022-10-23T02:49:10.307Z,989.92
2022-10-23T02:50:10.285Z,989.95
2022-10-23T02:51:10.273Z,989.98
2022-10-23T02:52:42.155Z,989.90
2022-10-23T02:53:10.260Z,989.92
2022-10-23T02:54:10.258Z,989.90
2022-10-23T02:55:10.222Z,989.89
2022-10-23T02:56:10.211Z,989.90
2022-10-23T02:57:10.212Z,989.86
2022-10-23T02:58:10.207Z,989.86
2022-10-23T02:59:10.222Z,989.78
2022-10-23T03:00:10.198Z,989.76
2022-10-23T03:01:10.199Z,989.75
2022-10-23T03:02:10.254Z,989.70
2022-10-23T03:03:10.156Z,989.72
2022-10-23T03:04:10.161Z,989.67
2022-10-23T03:05:10.125Z,989.64
2022-10-23T03:06:10.128Z,989.68
2022-10-23T03:07:10.177Z,989.64
2022-10-23T03:08:10.107Z,989.63
2022-10-23T03:09:10.099Z,989.61
2022-10-23T03:10:10.086Z,989.62
2022-10-23T03:11:10.072Z,989.59
2022-10-23T03:12:10.090Z,989.59
2022-10-23T03:13:10.047Z,989.63
2022-10-23T03:14:10.037Z,989.59
2022-10-23T03:15:10.026Z,989.58
2022-10-23T03:16:10.022Z,989.67
2022-10-23T03:17:10.004Z,989.63
2022-10-23T03:18:10.023Z,989.64
2022-10-23T03:19:09.995Z,989.62
2022-10-23T03:20:10.003Z,989.59
2022-10-23T03:21:09.984Z,989.61
2022-10-23T03:22:09.961Z,989.65
2022-10-23T03:23:09.952Z,989.67
2022-10-23T03:24:09.947Z,989.70
2022-10-23T03:25:09.929Z,989.69
2022-10-23T03:26:09.924Z,989.64
2022-10-23T03:27:09.910Z,989.66
2022-10-23T03:28:09.907Z,989.62
2022-10-23T03:29:09.910Z,989.64
2022-10-23T03:30:09.881Z,989.65
2022-10-23T03:31:09.868Z,989.64
2022-10-23T03:32:09.862Z,989.67
2022-10-23T03:33:09.852Z,989.66
2022-10-23T03:34:09.871Z,989.60
2022-10-23T03:35:09.836Z,989.61
2022-10-23T03:36:09.824Z,989.61
2022-10-23T03:37:09.821Z,989.55
2022-10-23T03:38:09.800Z,989.55
2022-10-23T03:39:09.788Z,989.58
2022-10-23T03:40:09.799Z,989.51
2022-10-23T03:41:09.771Z,989.55
2022-10-23T03:42:09.774Z,989.55
2022-10-23T03:43:09.765Z,989.60
2022-10-23T03:44:09.740Z,989.56
2022-10-23T03:45:09.743Z,989.55
2022-10-23T03:46:09.743Z,989.62
2022-10-23T03:47:09.717Z,989.56
2022-10-23T03:48:09.695Z,989.57
2022-10-23T03:49:09.688Z,989.57
2022-10-23T03:50:09.673Z,989.59
2022-10-23T03:51:09.696Z,989.64
2022-10-23T03:52:09.660Z,989.62
2022-10-23T03:53:09.655Z,989.64
2022-10-23T03:54:09.654Z,989.51
2022-10-23T03:55:09.643Z,989.46
2022-10-23T03:56:09.639Z,989.48
2022-10-23T03:57:09.609Z,989.43
2022-10-23T03:58:09.595Z,989.43
2022-10-23T03:59:09.580Z,989.46
2022-10-23T04:00:09.590Z,989.46
2022-10-23T04:01:09.657Z,989.43
2022-10-23T04:02:09.643Z,989.48
2022-10-23T04:03:09.559Z,989.49
2022-10-23T04:04:09.544Z,989.51
2022-10-23T04:05:09.535Z,989.47
2022-10-23T04:06:09.523Z,989.46
2022-10-23T04:07:09.526Z,989.44
2022-10-23T04:08:09.506Z,989.45
2022-10-23T04:09:09.506Z,989.45
2022-10-23T04:10:09.507Z,989.39
2022-10-23T04:11:09.493Z,989.34
2022-10-23T04:12:09.463Z,989.38
2022-10-23T04:13:09.455Z,989.40
2022-10-23T04:14:09.442Z,989.40
2022-10-23T04:15:09.442Z,989.40
2022-10-23T04:16:09.444Z,989.43
2022-10-23T04:17:09.415Z,989.43
2022-10-23T04:18:09.409Z,989.39
2022-10-23T04:19:09.394Z,989.44
2022-10-23T04:20:09.383Z,989.37
2022-10-23T04:21:09.363Z,989.35
2022-10-23T04:22:09.367Z,989.36
2022-10-23T04:23:09.380Z,989.31
2022-10-23T04:24:09.345Z,989.33
2022-10-23T04:25:09.356Z,989.36
2022-10-23T04:26:09.323Z,989.39
2022-10-23T04:27:09.313Z,989.44
2022-10-23T04:28:09.308Z,989.39
2022-10-23T04:29:09.296Z,989.39
2022-10-23T04:30:09.288Z,989.41
2022-10-23T04:31:09.293Z,989.43
2022-10-23T04:32:09.281Z,989.39
2022-10-23T04:33:09.253Z,989.33
2022-10-23T04:34:09.252Z,989.35
2022-10-23T04:35:09.250Z,989.34
2022-10-23T04:36:09.201Z,989.36
2022-10-23T04:37:10.217Z,989.35
2022-10-23T04:38:09.192Z,989.35
2022-10-23T04:39:09.216Z,989.34
2022-10-23T04:40:09.186Z,989.29
2022-10-23T04:41:09.165Z,989.28
2022-10-23T04:42:09.159Z,989.25
2022-10-23T04:43:09.153Z,989.25
2022-10-23T04:44:09.164Z,989.29
2022-10-23T04:45:09.131Z,989.29
2022-10-23T04:46:09.135Z,989.26
2022-10-23T04:47:09.122Z,989.23
2022-10-23T04:48:09.103Z,989.25
2022-10-23T04:49:09.109Z,989.24
2022-10-23T04:50:09.136Z,989.21
2022-10-23T04:51:09.074Z,989.34
2022-10-23T04:52:09.061Z,989.27
2022-10-23T04:53:09.045Z,989.30
2022-10-23T04:54:09.034Z,989.32
2022-10-23T04:55:09.055Z,989.37
2022-10-23T04:56:09.038Z,989.39
2022-10-23T04:57:09.038Z,989.42
2022-10-23T04:58:09.000Z,989.38
2022-10-23T04:59:08.977Z,989.35
2022-10-23T05:00:08.977Z,989.40
2022-10-23T05:01:09.028Z,989.35
2022-10-23T05:02:09.012Z,989.44
2022-10-23T05:03:08.949Z,989.31
2022-10-23T05:04:08.943Z,989.34
2022-10-23T05:05:08.934Z,989.37
2022-10-23T05:06:08.917Z,989.33
2022-10-23T05:07:08.935Z,989.26
2022-10-23T05:08:08.912Z,989.25
2022-10-23T05:09:08.914Z,989.19
2022-10-23T05:10:08.883Z,989.19
2022-10-23T05:11:08.870Z,989.18
2022-10-23T05:12:08.864Z,989.12
2022-10-23T05:13:08.850Z,989.14
2022-10-23T05:14:08.871Z,989.15
2022-10-23T05:15:08.823Z,989.24
2022-10-23T05:16:08.811Z,989.31
2022-10-23T05:17:08.802Z,989.32
2022-10-23T05:18:08.806Z,989.30
2022-10-23T05:19:08.789Z,989.27
2022-10-23T05:20:08.799Z,989.24
2022-10-23T05:21:08.764Z,989.23
2022-10-23T05:22:08.787Z,989.14
2022-10-23T05:23:08.756Z,989.10
2022-10-23T05:24:08.746Z,989.08
2022-10-23T05:25:08.726Z,989.04
2022-10-23T05:26:08.713Z,989.09
2022-10-23T05:27:08.712Z,989.13
2022-10-23T05:28:08.691Z,989.11
2022-10-23T05:29:08.694Z,989.10
2022-10-23T05:30:08.685Z,989.13
2022-10-23T05:31:08.662Z,989.15
2022-10-23T05:32:08.710Z,989.12
2022-10-23T05:33:08.640Z,989.09
2022-10-23T05:34:11.222Z,989.00
2022-10-23T05:35:08.912Z,989.05
2022-10-23T05:36:08.621Z,989.04
2022-10-23T05:37:08.591Z,988.96
2022-10-23T05:38:08.587Z,988.99
2022-10-23T05:39:08.584Z,989.01
2022-10-23T05:40:08.608Z,989.07
2022-10-23T05:41:08.563Z,989.12
2022-10-23T05:42:08.557Z,989.14
2022-10-23T05:43:08.538Z,989.22
2022-10-23T05:44:08.527Z,989.21
2022-10-23T05:45:08.514Z,989.26
2022-10-23T05:46:08.527Z,989.27
2022-10-23T05:47:08.505Z,989.30
2022-10-23T05:48:11.336Z,989.20
2022-10-23T05:49:10.485Z,989.12
2022-10-23T05:50:08.469Z,989.01
2022-10-23T05:51:08.473Z,989.00
2022-10-23T05:52:08.457Z,989.00
2022-10-23T05:53:08.471Z,989.04
2022-10-23T05:54:08.428Z,989.03
2022-10-23T05:55:08.427Z,989.05
2022-10-23T05:56:08.414Z,989.07
2022-10-23T05:57:08.445Z,989.06
2022-10-23T05:58:08.430Z,989.09
2022-10-23T05:59:08.396Z,989.13
2022-10-23T06:00:08.372Z,989.11
2022-10-23T06:01:08.421Z,989.05
2022-10-23T06:02:08.437Z,989.06
2022-10-23T06:03:08.362Z,989.13
2022-10-23T06:04:08.353Z,989.15
2022-10-23T06:05:08.338Z,989.18
2022-10-23T06:06:08.339Z,989.21
2022-10-23T06:07:08.323Z,989.22
2022-10-23T06:08:08.299Z,989.19
2022-10-23T06:09:08.310Z,989.12
2022-10-23T06:10:08.310Z,989.12
2022-10-23T06:11:08.267Z,989.08
2022-10-23T06:12:08.268Z,989.10
2022-10-23T06:13:08.255Z,989.15
2022-10-23T06:14:08.253Z,989.16
2022-10-23T06:15:08.251Z,989.13
2022-10-23T06:16:09.756Z,989.17
2022-10-23T06:17:09.207Z,989.22
2022-10-23T06:18:08.214Z,989.22
2022-10-23T06:19:08.210Z,989.19
2022-10-23T06:20:08.180Z,989.19
2022-10-23T06:21:08.185Z,989.16
2022-10-23T06:22:08.200Z,989.15
2022-10-23T06:23:08.168Z,989.13
2022-10-23T06:24:08.157Z,989.07
2022-10-23T06:25:08.142Z,988.99
2022-10-23T06:26:08.141Z,989.00
2022-10-23T06:27:08.132Z,988.97
2022-10-23T06:28:08.105Z,989.01
2022-10-23T06:29:08.105Z,988.96
2022-10-23T06:30:08.092Z,989.00
2022-10-23T06:31:08.067Z,989.00
2022-10-23T06:32:08.072Z,988.94
2022-10-23T06:33:08.053Z,988.93
2022-10-23T06:34:08.042Z,988.87
2022-10-23T06:35:08.026Z,988.99
2022-10-23T06:36:08.025Z,989.02
2022-10-23T06:37:08.026Z,988.99
2022-10-23T06:38:08.023Z,988.96
2022-10-23T06:39:08.026Z,988.92
2022-10-23T06:40:08.006Z,988.86
2022-10-23T06:41:07.968Z,988.86
2022-10-23T06:42:07.970Z,988.93
2022-10-23T06:43:07.954Z,988.85
2022-10-23T06:44:07.942Z,988.92
2022-10-23T06:45:07.951Z,988.92
2022-10-23T06:46:07.918Z,988.92
2022-10-23T06:47:07.958Z,988.92
2022-10-23T06:48:07.896Z,988.96
2022-10-23T06:49:07.897Z,989.02
2022-10-23T06:50:11.700Z,989.10
2022-10-23T06:51:09.872Z,989.06
2022-10-23T06:52:14.387Z,989.05
2022-10-23T06:53:09.853Z,989.13
2022-10-23T06:54:07.845Z,989.07
2022-10-23T06:55:08.861Z,989.05
2022-10-23T06:56:07.827Z,988.99
2022-10-23T06:57:07.821Z,989.04
2022-10-23T06:58:07.810Z,989.11
2022-10-23T06:59:07.790Z,989.15
2022-10-23T07:00:07.800Z,989.13
2022-10-23T07:01:07.935Z,989.10
2022-10-23T07:02:07.774Z,989.15
2022-10-23T07:03:07.756Z,989.15
2022-10-23T07:04:07.746Z,989.11
2022-10-23T07:05:09.952Z,989.12
2022-10-23T07:06:08.733Z,989.13
2022-10-23T07:07:07.706Z,989.13
2022-10-23T07:08:07.767Z,989.12
2022-10-23T07:09:07.692Z,989.07
2022-10-23T07:10:07.724Z,989.07
2022-10-23T07:11:07.675Z,989.08
2022-10-23T07:12:07.666Z,989.05
2022-10-23T07:13:07.662Z,988.99
2022-10-23T07:14:07.629Z,988.99
2022-10-23T07:15:07.645Z,988.99
2022-10-23T07:16:07.611Z,989.06
2022-10-23T07:17:07.588Z,989.05
2022-10-23T07:18:07.597Z,989.03
2022-10-23T07:19:07.607Z,989.09
2022-10-23T07:20:07.584Z,989.08
2022-10-23T07:21:07.569Z,989.07
2022-10-23T07:22:09.702Z,989.00
2022-10-23T07:23:07.558Z,989.06
2022-10-23T07:24:07.539Z,989.01
2022-10-23T07:25:07.534Z,988.92
2022-10-23T07:26:07.517Z,988.95
2022-10-23T07:27:07.511Z,988.93
2022-10-23T07:28:07.531Z,988.85
2022-10-23T07:29:07.484Z,988.88
2022-10-23T07:30:07.483Z,988.85
2022-10-23T07:31:07.473Z,988.93
2022-10-23T07:32:07.467Z,988.85
2022-10-23T07:33:07.477Z,988.87
2022-10-23T07:34:07.451Z,988.83
2022-10-23T07:35:07.543Z,988.83
2022-10-23T07:36:07.426Z,988.84
2022-10-23T07:37:07.425Z,988.78
2022-10-23T07:38:07.413Z,988.90
2022-10-23T07:39:07.400Z,988.84
2022-10-23T07:40:07.404Z,988.85
2022-10-23T07:41:09.021Z,988.82
2022-10-23T07:42:07.364Z,988.82
2022-10-23T07:43:07.359Z,988.80
2022-10-23T07:44:07.404Z,988.86
2022-10-23T07:45:07.348Z,988.86
2022-10-23T07:46:07.332Z,988.82
2022-10-23T07:47:07.328Z,988.78
2022-10-23T07:48:07.298Z,988.85
2022-10-23T07:49:07.294Z,988.75
2022-10-23T07:50:07.322Z,988.74
2022-10-23T07:51:07.294Z,988.79
2022-10-23T07:52:07.279Z,988.72
2022-10-23T07:53:07.256Z,988.77
2022-10-23T07:54:07.249Z,988.77
2022-10-23T07:55:07.251Z,988.72
2022-10-23T07:56:07.229Z,988.78
2022-10-23T07:57:07.217Z,988.74
2022-10-23T07:58:07.214Z,988.74
2022-10-23T07:59:07.189Z,988.76
2022-10-23T08:00:07.202Z,988.73
2022-10-23T08:01:07.271Z,988.78
2022-10-23T08:02:07.194Z,988.77
2022-10-23T08:03:07.155Z,988.81
2022-10-23T08:04:07.165Z,988.76
2022-10-23T08:05:07.145Z,988.85
2022-10-23T08:06:07.136Z,988.78
2022-10-23T08:07:07.109Z,988.80
2022-10-23T08:08:07.105Z,988.77
2022-10-23T08:09:07.244Z,988.72
2022-10-23T08:10:07.091Z,988.69
2022-10-23T08:11:07.081Z,988.69
2022-10-23T08:12:07.089Z,988.75
2022-10-23T08:13:07.061Z,988.77
2022-10-23T08:14:07.053Z,988.82
2022-10-23T08:15:07.049Z,988.77
2022-10-23T08:16:07.027Z,988.80
2022-10-23T08:17:07.044Z,988.80
2022-10-23T08:18:07.014Z,988.74
2022-10-23T08:19:07.009Z,988.71
2022-10-23T08:20:06.985Z,988.81
2022-10-23T08:21:06.977Z,988.76
2022-10-23T08:22:06.987Z,988.73
2022-10-23T08:23:06.968Z,988.67
2022-10-23T08:24:06.951Z,988.64
2022-10-23T08:25:06.934Z,988.57
2022-10-23T08:26:06.945Z,988.60
2022-10-23T08:27:06.938Z,988.55
2022-10-23T08:28:06.910Z,988.61
2022-10-23T08:29:06.901Z,988.55
2022-10-23T08:30:06.885Z,988.58
2022-10-23T08:31:06.871Z,988.58
2022-10-23T08:32:06.879Z,988.59
2022-10-23T08:33:06.844Z,988.52
2022-10-23T08:34:06.874Z,988.64
2022-10-23T08:35:06.828Z,988.60
2022-10-23T08:36:06.835Z,988.60
2022-10-23T08:37:06.847Z,988.59
2022-10-23T08:38:06.810Z,988.59
2022-10-23T08:39:06.816Z,988.63
2022-10-23T08:40:06.788Z,988.63
2022-10-23T08:41:06.776Z,988.59
2022-10-23T08:42:06.827Z,988.52
2022-10-23T08:43:06.755Z,988.53
2022-10-23T08:44:06.742Z,988.48
2022-10-23T08:45:06.760Z,988.44
2022-10-23T08:46:09.243Z,988.45
2022-10-23T08:47:06.731Z,988.40
2022-10-23T08:48:06.711Z,988.44
2022-10-23T08:49:06.699Z,988.40
2022-10-23T08:50:06.686Z,988.44
2022-10-23T08:51:06.686Z,988.38
2022-10-23T08:52:08.109Z,988.47
2022-10-23T08:53:38.552Z,988.41
2022-10-23T08:54:06.655Z,988.42
2022-10-23T08:55:06.659Z,988.40
2022-10-23T08:56:06.629Z,988.40
2022-10-23T08:57:06.616Z,988.34
2022-10-23T08:58:06.644Z,988.40
2022-10-23T08:59:06.616Z,988.42
2022-10-23T09:00:06.631Z,988.38
2022-10-23T09:01:06.677Z,988.34
2022-10-23T09:02:06.771Z,988.36
2022-10-23T09:03:06.579Z,988.36
2022-10-23T09:04:06.587Z,988.36
2022-10-23T09:05:06.550Z,988.37
2022-10-23T09:06:06.537Z,988.40
2022-10-23T09:07:06.612Z,988.28
2022-10-23T09:08:06.522Z,988.24
2022-10-23T09:09:06.510Z,988.22
2022-10-23T09:10:06.506Z,988.13
2022-10-23T09:11:06.507Z,988.16
2022-10-23T09:12:06.476Z,988.08
2022-10-23T09:13:06.465Z,988.09
2022-10-23T09:14:06.450Z,988.07
2022-10-23T09:15:06.445Z,988.11
2022-10-23T09:16:06.462Z,988.13
2022-10-23T09:17:06.495Z,988.14
2022-10-23T09:18:06.418Z,988.18
2022-10-23T09:19:09.982Z,988.21
2022-10-23T09:20:08.413Z,988.23
2022-10-23T09:21:06.379Z,988.25
2022-10-23T09:22:06.380Z,988.26
2022-10-23T09:23:06.358Z,988.23
2022-10-23T09:24:06.354Z,988.25
2022-10-23T09:25:06.340Z,988.25
2022-10-23T09:26:06.346Z,988.27
2022-10-23T09:27:06.318Z,988.20
2022-10-23T09:28:06.302Z,988.17
2022-10-23T09:29:06.323Z,988.13
2022-10-23T09:30:06.292Z,988.09
2022-10-23T09:31:06.277Z,988.15
2022-10-23T09:32:06.276Z,988.17
2022-10-23T09:33:06.266Z,988.07
2022-10-23T09:34:09.641Z,988.07
2022-10-23T09:35:08.241Z,988.07
2022-10-23T09:36:06.226Z,988.13
2022-10-23T09:37:06.234Z,988.07
2022-10-23T09:38:06.206Z,988.11
2022-10-23T09:39:06.189Z,988.10
2022-10-23T09:40:06.189Z,988.00
2022-10-23T09:41:06.183Z,988.05
2022-10-23T09:42:06.169Z,987.98
2022-10-23T09:43:06.952Z,987.98
2022-10-23T09:44:06.180Z,988.01
2022-10-23T09:45:06.134Z,987.99
2022-10-23T09:46:06.133Z,987.98
2022-10-23T09:47:06.111Z,988.00
2022-10-23T09:48:06.101Z,987.92
2022-10-23T09:49:06.115Z,987.87
2022-10-23T09:50:06.098Z,987.88
2022-10-23T09:51:06.087Z,987.85
2022-10-23T09:52:06.069Z,987.90
2022-10-23T09:53:06.074Z,987.84
2022-10-23T09:54:06.076Z,987.89
2022-10-23T09:55:06.051Z,987.88
2022-10-23T09:56:06.043Z,987.86
2022-10-23T09:57:06.038Z,987.91
2022-10-23T09:58:06.009Z,987.83
2022-10-23T09:59:06.075Z,987.82
2022-10-23T10:00:05.997Z,987.91
2022-10-23T10:01:06.108Z,987.92
2022-10-23T10:02:06.092Z,987.92
2022-10-23T10:03:05.970Z,987.80
2022-10-23T10:04:05.993Z,987.83
2022-10-23T10:05:05.948Z,987.84
2022-10-23T10:06:05.936Z,987.81
2022-10-23T10:07:05.925Z,987.73
2022-10-23T10:08:05.932Z,987.78
2022-10-23T10:09:05.895Z,987.78
2022-10-23T10:10:05.931Z,987.69
2022-10-23T10:11:05.888Z,987.74
2022-10-23T10:12:05.868Z,987.73
2022-10-23T10:13:05.853Z,987.65
2022-10-23T10:14:06.851Z,987.72
2022-10-23T10:15:05.861Z,987.75
2022-10-23T10:16:05.852Z,987.79
2022-10-23T10:17:05.824Z,987.79
2022-10-23T10:18:05.811Z,987.72
2022-10-23T10:19:05.842Z,987.82
2022-10-23T10:20:07.122Z,987.74
2022-10-23T10:21:05.792Z,987.67
2022-10-23T10:22:05.779Z,987.68
2022-10-23T10:23:05.761Z,987.65
2022-10-23T10:24:05.774Z,987.69
2022-10-23T10:25:05.757Z,987.58
2022-10-23T10:26:05.749Z,987.56
2022-10-23T10:27:05.734Z,987.54
2022-10-23T10:28:05.736Z,987.48
2022-10-23T10:29:05.706Z,987.41
2022-10-23T10:30:05.705Z,987.40
2022-10-23T10:31:05.674Z,987.40
2022-10-23T10:32:06.676Z,987.36
2022-10-23T10:33:05.700Z,987.41
2022-10-23T10:34:05.655Z,987.47
2022-10-23T10:35:05.654Z,987.46
2022-10-23T10:36:05.644Z,987.46
2022-10-23T10:37:05.624Z,987.47
2022-10-23T10:38:05.639Z,987.45
2022-10-23T10:39:05.606Z,987.51
2022-10-23T10:40:05.593Z,987.45
2022-10-23T10:41:05.589Z,987.48
2022-10-23T10:42:05.580Z,987.48
2022-10-23T10:43:05.588Z,987.45
2022-10-23T10:44:05.587Z,987.39
2022-10-23T10:45:05.547Z,987.41
2022-10-23T10:46:05.573Z,987.38
2022-10-23T10:47:05.532Z,987.34
2022-10-23T10:48:05.522Z,987.32
2022-10-23T10:49:05.536Z,987.33
2022-10-23T10:50:05.502Z,987.32
2022-10-23T10:51:05.521Z,987.28
2022-10-23T10:52:05.489Z,987.30
2022-10-23T10:53:05.509Z,987.21
2022-10-23T10:54:05.462Z,987.26
2022-10-23T10:55:05.456Z,987.19
2022-10-23T10:56:05.469Z,987.22
2022-10-23T10:57:05.433Z,987.22
2022-10-23T10:58:05.452Z,987.17
2022-10-23T10:59:05.410Z,987.20
2022-10-23T11:00:05.410Z,987.13
2022-10-23T11:01:05.580Z,987.11
2022-10-23T11:02:05.502Z,987.10
2022-10-23T11:03:05.371Z,987.12
2022-10-23T11:04:05.370Z,987.02
2022-10-23T11:05:05.362Z,987.09
2022-10-23T11:06:05.374Z,987.09
2022-10-23T11:07:05.357Z,987.08
2022-10-23T11:08:05.316Z,987.08
2022-10-23T11:09:19.777Z,987.06
2022-10-23T11:10:07.301Z,987.05
2022-10-23T11:11:05.301Z,986.92
2022-10-23T11:12:05.306Z,986.99
2022-10-23T11:13:05.277Z,986.98
2022-10-23T11:14:05.264Z,986.92
2022-10-23T11:15:05.249Z,986.98
2022-10-23T11:16:05.251Z,986.94
2022-10-23T11:17:05.270Z,986.92
2022-10-23T11:18:05.230Z,986.96
2022-10-23T11:19:07.525Z,986.89
2022-10-23T11:20:06.201Z,986.89
2022-10-23T11:21:05.188Z,986.93
2022-10-23T11:22:05.184Z,986.92
2022-10-23T11:23:05.174Z,986.89
2022-10-23T11:24:05.235Z,986.84
2022-10-23T11:25:05.138Z,986.77
2022-10-23T11:26:06.133Z,986.76
2022-10-23T11:27:05.160Z,986.71
2022-10-23T11:28:08.576Z,986.71
2022-10-23T11:29:07.111Z,986.70
2022-10-23T11:30:05.107Z,986.71
2022-10-23T11:31:09.429Z,986.65
2022-10-23T11:32:07.097Z,986.68
2022-10-23T11:33:05.083Z,986.61
2022-10-23T11:34:05.107Z,986.67
2022-10-23T11:35:05.042Z,986.60
2022-10-23T11:36:05.045Z,986.68
2022-10-23T11:37:05.033Z,986.67
2022-10-23T11:38:05.020Z,986.64
2022-10-23T11:39:05.024Z,986.60
2022-10-23T11:40:05.005Z,986.65
2022-10-23T11:41:04.990Z,986.67
2022-10-23T11:42:04.975Z,986.62
2022-10-23T11:43:04.986Z,986.57
2022-10-23T11:44:04.981Z,986.57
2022-10-23T11:45:04.952Z,986.54
2022-10-23T11:46:04.944Z,986.56
2022-10-23T11:47:04.941Z,986.59
2022-10-23T11:48:04.919Z,986.57
2022-10-23T11:49:05.038Z,986.59
2022-10-23T11:50:04.906Z,986.56
2022-10-23T11:51:05.312Z,986.50
2022-10-23T11:52:04.876Z,986.41
2022-10-23T11:53:19.609Z,986.49
2022-10-23T11:54:06.889Z,986.50
2022-10-23T11:55:04.854Z,986.49
2022-10-23T11:56:04.877Z,986.48
2022-10-23T11:57:07.999Z,986.42
2022-10-23T11:58:05.843Z,986.41
2022-10-23T11:59:04.804Z,986.42
2022-10-23T12:00:04.804Z,986.40
2022-10-23T12:01:04.865Z,986.41
2022-10-23T12:02:04.787Z,986.30
2022-10-23T12:03:04.817Z,986.25
2022-10-23T12:04:04.754Z,986.23
2022-10-23T12:05:04.753Z,986.24
2022-10-23T12:06:04.770Z,986.29
2022-10-23T12:07:04.748Z,986.18
2022-10-23T12:08:04.726Z,986.17
2022-10-23T12:09:04.711Z,986.25
2022-10-23T12:10:04.703Z,986.19
2022-10-23T12:11:04.696Z,986.14
2022-10-23T12:12:04.695Z,986.20
2022-10-23T12:13:04.675Z,986.19
2022-10-23T12:14:04.717Z,986.12
2022-10-23T12:15:04.667Z,986.10
2022-10-23T12:16:04.678Z,986.08
2022-10-23T12:17:04.640Z,986.05
2022-10-23T12:18:04.626Z,986.04
2022-10-23T12:19:04.606Z,986.03
2022-10-23T12:20:04.603Z,985.99
2022-10-23T12:21:04.616Z,986.08
2022-10-23T12:22:04.601Z,985.98
2022-10-23T12:23:04.575Z,986.03
2022-10-23T12:24:05.560Z,986.01
2022-10-23T12:25:04.554Z,985.99
2022-10-23T12:26:04.555Z,986.02
2022-10-23T12:27:04.552Z,986.05
2022-10-23T12:28:04.557Z,985.98
2022-10-23T12:29:04.511Z,985.90